Time;durP1;ratioP1;P1;durP2;ratioP2;P2;SDS_P1;SDS_P2;PMS_P1;PMS_P2;Temp;Humidity;BMP_temperature;BMP_pressure;BME280_temperature;BME280_humidity;BME280_pressure;Samples;Min_cycle;Max_cycle;Signal;HPM_P1;HPM_P2
2024/01/10 00:01:31;;;;;;;12.18;5.90;;;;;;;-5.02;87.07;103151.94;5119393;27;20058;-74
2024/01/10 00:03:57;;;;;;;9.65;5.07;;;;;;;-4.99;88.35;103149.41;5112437;27;20040;-74
2024/01/10 00:06:23;;;;;;;12.52;5.55;;;;;;;-5.03;88.36;103142.31;5094295;27;20032;-74
2024/01/10 00:08:49;;;;;;;9.93;5.50;;;;;;;-5.02;88.34;103140.59;5107314;27;20031;-73
2024/01/10 00:11:14;;;;;;;17.48;5.88;;;;;;;-5.01;88.88;103138.09;5117785;27;20062;-74
2024/01/10 00:13:40;;;;;;;12.10;5.93;;;;;;;-5.07;89.10;103132.66;5095127;27;20039;-75
2024/01/10 00:16:06;;;;;;;9.73;4.80;;;;;;;-5.03;89.64;103133.63;5106357;27;20583;-74
2024/01/10 00:18:31;;;;;;;10.15;5.57;;;;;;;-5.08;89.87;103135.19;5115439;27;20032;-74
2024/01/10 00:20:58;;;;;;;11.15;5.90;;;;;;;-5.10;89.68;103129.03;5101538;28;20497;-74
2024/01/10 00:23:23;;;;;;;8.70;5.20;;;;;;;-5.03;90.02;103129.31;5112927;27;20020;-75
2024/01/10 00:25:49;;;;;;;10.80;5.50;;;;;;;-5.16;90.57;103121.03;5095513;27;20502;-74
2024/01/10 00:28:18;;;;;;;11.75;5.63;;;;;;;-5.08;91.31;103127.38;5109958;27;20028;-74
2024/01/10 00:30:44;;;;;;;13.63;6.03;;;;;;;-5.16;92.39;103118.41;5105484;27;20123;-74
2024/01/10 00:33:11;;;;;;;9.65;5.15;;;;;;;-5.16;92.60;103113.22;5106559;27;20032;-74
2024/01/10 00:35:36;;;;;;;9.02;5.05;;;;;;;-5.18;93.76;103110.53;5100818;27;20032;-74
2024/01/10 00:38:02;;;;;;;12.77;6.13;;;;;;;-5.18;95.28;103112.25;5105770;27;20056;-74
2024/01/10 00:40:28;;;;;;;11.07;5.55;;;;;;;-5.24;95.05;103106.00;5088014;27;20558;-75
2024/01/10 00:42:53;;;;;;;13.30;5.50;;;;;;;-5.21;96.05;103107.84;5078783;28;20047;-75
2024/01/10 00:45:19;;;;;;;12.27;5.43;;;;;;;-5.24;96.62;103115.50;5074150;27;20075;-74
2024/01/10 00:47:44;;;;;;;9.55;5.35;;;;;;;-5.17;96.81;103112.34;5084204;28;20634;-74
2024/01/10 00:50:10;;;;;;;11.02;5.40;;;;;;;-5.17;96.64;103106.22;5092109;27;20050;-75
2024/01/10 00:52:36;;;;;;;10.68;5.57;;;;;;;-5.23;97.26;103109.47;5099999;27;20081;-74
2024/01/10 00:55:02;;;;;;;12.40;6.18;;;;;;;-5.19;97.63;103103.56;5098168;27;20024;-73
2024/01/10 00:57:27;;;;;;;11.57;5.90;;;;;;;-5.23;97.79;103097.34;5099748;27;20028;-73
2024/01/10 00:59:52;;;;;;;11.00;5.82;;;;;;;-5.26;98.57;103099.88;5099929;27;20690;-74
2024/01/10 01:02:18;;;;;;;15.60;6.38;;;;;;;-5.28;99.01;103100.63;5073650;28;20032;-74
2024/01/10 01:04:43;;;;;;;10.63;5.35;;;;;;;-5.30;99.88;103097.97;5102699;27;20047;-74
2024/01/10 01:07:09;;;;;;;12.23;6.03;;;;;;;-5.40;100.00;103089.75;5076461;27;20036;-75
2024/01/10 01:09:34;;;;;;;15.23;5.57;;;;;;;-5.34;100.00;103097.78;5088972;27;20040;-73
2024/01/10 01:12:00;;;;;;;10.88;5.63;;;;;;;-5.26;100.00;103093.78;5082553;27;20847;-74
2024/01/10 01:14:26;;;;;;;12.02;6.18;;;;;;;-5.34;100.00;103095.19;5091476;27;20028;-74
2024/01/10 01:16:51;;;;;;;11.02;5.03;;;;;;;-5.34;100.00;103090.88;5094775;27;20032;-75
2024/01/10 01:19:17;;;;;;;12.98;6.40;;;;;;;-5.42;100.00;103100.13;5081151;27;20135;-74
2024/01/10 01:21:43;;;;;;;10.48;5.28;;;;;;;-5.29;100.00;103101.44;5072201;28;20518;-74
2024/01/10 01:24:09;;;;;;;13.30;5.53;;;;;;;-5.29;100.00;103093.66;5088059;27;20054;-74
2024/01/10 01:26:34;;;;;;;12.73;6.15;;;;;;;-5.41;100.00;103093.19;5092306;27;20035;-75
2024/01/10 01:29:00;;;;;;;10.23;5.80;;;;;;;-5.42;100.00;103099.19;5091321;27;20091;-76
2024/01/10 01:31:25;;;;;;;14.50;5.90;;;;;;;-5.34;100.00;103097.78;5089195;27;20830;-74
2024/01/10 01:33:51;;;;;;;12.32;6.68;;;;;;;-5.52;100.00;103097.97;5097321;27;20036;-73
2024/01/10 01:36:16;;;;;;;11.88;6.43;;;;;;;-5.48;100.00;103095.53;5085518;27;20035;-76
2024/01/10 01:38:42;;;;;;;11.77;6.35;;;;;;;-5.52;100.00;103097.97;5078722;27;20109;-73
2024/01/10 01:41:07;;;;;;;11.98;5.78;;;;;;;-5.52;100.00;103090.19;5086578;27;20032;-74
2024/01/10 01:43:33;;;;;;;14.52;6.32;;;;;;;-5.51;100.00;103081.56;5086284;27;20036;-75
2024/01/10 01:45:59;;;;;;;12.93;6.05;;;;;;;-5.50;100.00;103083.31;5095404;27;20047;-74
2024/01/10 01:48:27;;;;;;;10.23;6.25;;;;;;;-5.48;100.00;103087.72;5092335;27;20637;-74
2024/01/10 01:51:02;;;;;;;14.60;6.45;;;;;;;-5.54;100.00;103084.03;5095577;27;20028;-75
2024/01/10 01:53:28;;;;;;;11.38;5.85;;;;;;;-5.57;100.00;103090.00;5075980;27;20489;-74
2024/01/10 01:55:55;;;;;;;14.05;6.45;;;;;;;-5.57;100.00;103078.69;5093352;27;20047;-74
2024/01/10 01:58:22;;;;;;;15.75;6.50;;;;;;;-5.69;100.00;103086.03;5091469;27;20858;-75
2024/01/10 02:00:49;;;;;;;13.75;5.55;;;;;;;-5.55;100.00;103072.75;5089269;27;20051;-73
2024/01/10 02:03:15;;;;;;;12.90;6.30;;;;;;;-5.59;100.00;103065.66;5097695;27;20028;-72
2024/01/10 02:05:41;;;;;;;13.55;6.18;;;;;;;-5.58;100.00;103062.22;5078159;28;20496;-73
2024/01/10 02:08:08;;;;;;;15.75;6.57;;;;;;;-5.51;100.00;103059.03;5077159;27;20032;-73
2024/01/10 02:10:34;;;;;;;16.05;6.82;;;;;;;-5.59;100.00;103059.56;5067543;28;20086;-74
2024/01/10 02:13:00;;;;;;;12.13;6.85;;;;;;;-5.61;100.00;103049.13;5092220;27;20047;-76
2024/01/10 02:15:26;;;;;;;14.05;6.13;;;;;;;-5.76;100.00;103049.41;5095098;27;20028;-75
2024/01/10 02:17:52;;;;;;;12.45;6.05;;;;;;;-5.55;100.00;103051.06;5095393;27;20547;-74
2024/01/10 02:20:18;;;;;;;16.08;6.13;;;;;;;-5.75;100.00;103065.88;5086802;27;20851;-74
2024/01/10 02:22:43;;;;;;;14.10;6.00;;;;;;;-5.58;100.00;103049.22;5096389;27;20425;-74
2024/01/10 02:25:13;;;;;;;10.95;5.53;;;;;;;-5.74;100.00;103055.53;5074721;27;20455;-74
2024/01/10 02:27:42;;;;;;;11.55;6.20;;;;;;;-5.75;100.00;103051.19;5094074;27;20051;-75
2024/01/10 02:30:08;;;;;;;14.23;6.28;;;;;;;-5.64;100.00;103042.91;5088066;27;20040;-74
2024/01/10 02:32:35;;;;;;;10.18;6.05;;;;;;;-5.67;100.00;103047.97;5098212;27;20028;-74
2024/01/10 02:35:00;;;;;;;13.95;5.70;;;;;;;-5.73;100.00;103038.25;5090290;27;20035;-74
2024/01/10 02:37:26;;;;;;;17.10;6.82;;;;;;;-5.76;100.00;103040.75;5069578;28;20032;-74
2024/01/10 02:39:51;;;;;;;15.73;6.57;;;;;;;-5.67;100.00;103047.97;5091825;27;20488;-75
2024/01/10 02:42:17;;;;;;;10.95;6.20;;;;;;;-5.69;100.00;103037.53;5091223;27;20074;-75
2024/01/10 02:44:43;;;;;;;15.30;7.10;;;;;;;-5.69;100.00;103042.75;5097220;27;20032;-75
2024/01/10 02:47:09;;;;;;;16.08;7.07;;;;;;;-5.72;100.00;103045.25;5096720;27;20940;-75
2024/01/10 02:49:35;;;;;;;13.05;6.82;;;;;;;-5.78;100.00;103045.84;5078981;27;20042;-74
2024/01/10 02:52:00;;;;;;;13.65;5.72;;;;;;;-5.81;100.00;103052.66;5099595;27;20040;-74
2024/01/10 02:54:26;;;;;;;12.40;5.63;;;;;;;-5.71;100.00;103053.91;5094913;27;20146;-76
2024/01/10 02:56:52;;;;;;;19.27;6.65;;;;;;;-5.78;100.00;103055.38;5093658;27;20032;-75
2024/01/10 02:59:17;;;;;;;14.93;6.40;;;;;;;-5.87;100.00;103049.84;5090965;27;20782;-74
2024/01/10 03:01:43;;;;;;;13.05;5.88;;;;;;;-5.74;100.00;103033.88;5080061;27;20036;-74
2024/01/10 03:04:08;;;;;;;14.88;6.93;;;;;;;-5.82;100.00;103027.53;5073256;28;20148;-73
2024/01/10 03:06:34;;;;;;;9.65;5.72;;;;;;;-5.96;100.00;103044.31;5084538;27;20045;-74
2024/01/10 03:08:59;;;;;;;13.45;6.75;;;;;;;-5.86;100.00;103043.81;5100159;27;20028;-74
2024/01/10 03:11:25;;;;;;;13.32;6.55;;;;;;;-5.92;100.00;103033.19;5099162;27;20024;-75
2024/01/10 03:14:00;;;;;;;15.35;6.95;;;;;;;-5.81;100.00;103027.56;5098565;27;20697;-75
2024/01/10 03:16:25;;;;;;;13.57;7.05;;;;;;;-5.92;100.00;103030.59;5084924;27;20103;-74
2024/01/10 03:18:51;;;;;;;14.02;6.93;;;;;;;-5.93;100.00;103027.09;5095337;27;20498;-74
2024/01/10 03:21:22;;;;;;;13.07;6.07;;;;;;;-5.80;100.00;103024.13;5102505;27;20036;-74
2024/01/10 03:23:48;;;;;;;11.00;5.87;;;;;;;-5.88;100.00;103028.13;5098999;27;20112;-75
2024/01/10 03:26:13;;;;;;;11.15;6.28;;;;;;;-5.81;100.00;103026.69;5104449;27;20489;-75
2024/01/10 03:28:39;;;;;;;11.25;6.07;;;;;;;-5.82;100.00;103014.53;5096964;27;20027;-75
2024/01/10 03:31:04;;;;;;;13.73;6.00;;;;;;;-5.87;100.00;103021.25;5105623;27;20028;-73
2024/01/10 03:33:30;;;;;;;11.45;6.07;;;;;;;-5.89;100.00;103025.50;5098400;27;20040;-75
2024/01/10 03:35:55;;;;;;;13.63;6.57;;;;;;;-5.95;100.00;103022.69;5095142;27;20342;-75
2024/01/10 03:38:21;;;;;;;12.52;6.38;;;;;;;-5.97;100.00;103019.13;5089100;27;20423;-75
2024/01/10 03:40:46;;;;;;;14.38;6.07;;;;;;;-5.99;100.00;103021.69;5110313;27;20076;-73
2024/01/10 03:43:12;;;;;;;13.90;6.70;;;;;;;-5.90;100.00;103018.53;5096008;27;20031;-74
2024/01/10 03:45:37;;;;;;;15.57;6.32;;;;;;;-5.87;100.00;103018.66;5110577;28;20059;-75
2024/01/10 03:48:03;;;;;;;13.38;6.30;;;;;;;-5.96;100.00;103015.72;5104380;28;20088;-74
2024/01/10 03:50:29;;;;;;;12.40;6.53;;;;;;;-5.91;100.00;103014.19;5117649;27;21075;-74
2024/01/10 03:52:54;;;;;;;13.40;6.72;;;;;;;-5.78;100.00;103013.78;5114337;27;20040;-75
2024/01/10 03:55:20;;;;;;;14.32;6.45;;;;;;;-5.85;100.00;103015.28;5112217;27;20067;-74
2024/01/10 03:57:45;;;;;;;12.70;6.03;;;;;;;-5.89;100.00;103012.50;5106610;27;20052;-76
2024/01/10 04:00:11;;;;;;;15.25;7.15;;;;;;;-6.05;100.00;103011.06;5113662;27;20036;-75
2024/01/10 04:02:38;;;;;;;15.15;6.88;;;;;;;-6.08;100.00;103021.31;5111239;27;20063;-76
2024/01/10 04:05:08;;;;;;;19.25;7.35;;;;;;;-5.88;100.00;103009.06;5097597;27;20070;-74
2024/01/10 04:07:33;;;;;;;14.77;6.68;;;;;;;-5.90;100.00;103010.75;5106608;27;20032;-74
2024/01/10 04:09:59;;;;;;;14.60;6.63;;;;;;;-5.90;100.00;103011.63;5107938;27;20487;-74
2024/01/10 04:12:24;;;;;;;14.05;7.05;;;;;;;-6.02;100.00;103006.00;5088266;27;20437;-74
2024/01/10 04:14:49;;;;;;;14.27;6.45;;;;;;;-6.03;100.00;103002.47;5103958;27;20865;-74
2024/01/10 04:17:15;;;;;;;12.50;6.85;;;;;;;-6.05;100.00;103016.25;5099792;27;20039;-75
2024/01/10 04:19:40;;;;;;;12.55;6.55;;;;;;;-6.02;100.00;103008.59;5095531;27;20373;-74
2024/01/10 04:22:06;;;;;;;13.50;6.95;;;;;;;-5.94;100.00;103006.28;5101657;27;20147;-75
2024/01/10 04:24:31;;;;;;;15.20;6.70;;;;;;;-5.85;100.00;103002.28;5077855;27;20741;-74
2024/01/10 04:26:57;;;;;;;13.23;6.78;;;;;;;-5.98;100.00;103001.78;5101485;27;20031;-74
2024/01/10 04:29:22;;;;;;;15.48;6.63;;;;;;;-6.01;100.00;103016.44;5092078;27;20473;-75
2024/01/10 04:31:48;;;;;;;14.02;6.35;;;;;;;-6.05;100.00;102998.06;5089703;27;20033;-75
2024/01/10 04:34:14;;;;;;;12.88;6.28;;;;;;;-6.06;100.00;102999.78;5098848;27;20046;-74
2024/01/10 04:36:39;;;;;;;18.67;7.85;;;;;;;-6.12;100.00;102998.66;5097554;27;20032;-73
2024/01/10 04:39:05;;;;;;;11.63;6.32;;;;;;;-6.12;100.00;102983.97;5075558;27;20102;-74
2024/01/10 04:41:30;;;;;;;12.93;6.53;;;;;;;-6.19;100.00;102989.72;5092842;27;20040;-74
2024/01/10 04:43:56;;;;;;;15.38;6.72;;;;;;;-6.11;100.00;102990.03;5069550;27;20048;-75
2024/01/10 04:46:21;;;;;;;20.10;7.57;;;;;;;-6.09;100.00;102985.78;5097191;27;20300;-75
2024/01/10 04:48:47;;;;;;;13.20;6.72;;;;;;;-6.20;100.00;102993.16;5094171;27;20096;-74
2024/01/10 04:51:14;;;;;;;14.02;6.85;;;;;;;-6.07;100.00;102986.75;5066585;28;20566;-74
2024/01/10 04:53:40;;;;;;;12.80;7.07;;;;;;;-6.11;100.00;102983.13;5069922;27;20036;-75
2024/01/10 04:56:05;;;;;;;14.93;7.15;;;;;;;-6.11;100.00;102987.44;5063536;27;20240;-74
2024/01/10 04:58:32;;;;;;;15.30;6.75;;;;;;;-6.04;100.00;102984.25;5099200;27;20144;-74
2024/01/10 05:00:58;;;;;;;14.88;7.35;;;;;;;-6.11;100.00;102993.53;5092758;27;20047;-75
2024/01/10 05:03:23;;;;;;;16.02;7.25;;;;;;;-6.06;100.00;102994.59;5092190;27;20103;-74
2024/01/10 05:05:49;;;;;;;11.80;6.38;;;;;;;-6.15;100.00;102994.22;5096561;27;20588;-74
2024/01/10 05:08:14;;;;;;;15.35;7.18;;;;;;;-6.08;100.00;102987.53;5087828;27;20058;-74
2024/01/10 05:10:40;;;;;;;15.77;7.50;;;;;;;-6.09;100.00;102986.66;5091278;27;20646;-74
2024/01/10 05:13:05;;;;;;;15.73;6.82;;;;;;;-6.08;100.00;102990.16;5093973;27;20031;-74
2024/01/10 05:15:31;;;;;;;12.63;6.53;;;;;;;-6.09;100.00;102990.97;5083214;27;20405;-74
2024/01/10 05:17:57;;;;;;;14.80;7.00;;;;;;;-6.07;100.00;102986.75;5073237;27;20752;-75
2024/01/10 05:20:22;;;;;;;14.13;6.65;;;;;;;-5.98;100.00;102988.78;5088000;27;20031;-75
2024/01/10 05:22:48;;;;;;;13.65;7.07;;;;;;;-6.05;100.00;102980.78;5095331;27;20204;-74
2024/01/10 05:25:13;;;;;;;15.73;7.50;;;;;;;-5.99;100.00;102985.31;5072607;27;20047;-74
2024/01/10 05:27:39;;;;;;;12.98;7.05;;;;;;;-6.08;100.00;102982.34;5098757;27;20146;-74
2024/01/10 05:30:05;;;;;;;15.60;7.00;;;;;;;-6.09;100.00;102997.06;5072525;27;20038;-74
2024/01/10 05:32:31;;;;;;;17.15;7.35;;;;;;;-6.06;100.00;102993.72;5070144;27;20038;-75
2024/01/10 05:34:56;;;;;;;13.90;7.07;;;;;;;-6.02;100.00;102998.19;5078207;27;20043;-74
2024/01/10 05:37:22;;;;;;;19.20;7.57;;;;;;;-6.07;100.00;103007.53;5090594;27;20071;-75
2024/01/10 05:39:47;;;;;;;16.90;7.28;;;;;;;-6.19;100.00;103012.22;5096624;27;20036;-74
2024/01/10 05:42:14;;;;;;;15.05;7.45;;;;;;;-6.13;100.00;103008.13;5079191;28;20031;-74
2024/01/10 05:44:40;;;;;;;14.15;7.15;;;;;;;-6.09;100.00;102990.97;5085898;27;20036;-75
2024/01/10 05:47:06;;;;;;;13.63;7.38;;;;;;;-6.25;100.00;103002.47;5066000;28;20267;-74
2024/01/10 05:49:32;;;;;;;18.15;8.00;;;;;;;-6.19;100.00;102989.72;5087859;27;20027;-74
2024/01/10 05:51:58;;;;;;;16.13;7.78;;;;;;;-6.30;100.00;102997.09;5071079;27;21244;-75
2024/01/10 05:54:23;;;;;;;17.80;8.32;;;;;;;-6.19;100.00;102997.50;5091819;27;20045;-74
2024/01/10 05:56:49;;;;;;;12.85;7.13;;;;;;;-6.22;100.00;102991.31;5094599;27;20019;-75
2024/01/10 05:59:16;;;;;;;13.32;7.53;;;;;;;-6.17;100.00;102989.81;5100212;27;20505;-74
2024/01/10 06:01:42;;;;;;;15.77;8.32;;;;;;;-6.21;100.00;102986.19;5093259;27;20036;-76
2024/01/10 06:04:08;;;;;;;19.67;8.48;;;;;;;-6.27;100.00;102988.56;5093353;27;20024;-75
2024/01/10 06:06:34;;;;;;;17.23;7.80;;;;;;;-6.26;100.00;102986.00;5094843;27;20044;-74
2024/01/10 06:09:00;;;;;;;15.95;6.93;;;;;;;-6.31;100.00;102982.34;5096843;27;20808;-74
2024/01/10 06:11:25;;;;;;;20.90;10.13;;;;;;;-6.18;100.00;102970.72;5077627;28;20044;-74
2024/01/10 06:13:51;;;;;;;19.10;8.32;;;;;;;-6.26;100.00;102982.53;5073300;27;20036;-74
2024/01/10 06:16:16;;;;;;;15.65;8.98;;;;;;;-6.22;100.00;102967.94;5071656;27;20044;-75
2024/01/10 06:18:42;;;;;;;17.23;8.93;;;;;;;-6.21;100.00;102967.13;5089615;27;20043;-74
2024/01/10 06:21:08;;;;;;;17.10;8.27;;;;;;;-6.17;100.00;102972.50;5088190;27;20141;-74
2024/01/10 06:23:33;;;;;;;19.13;9.45;;;;;;;-6.18;100.00;102962.03;5099146;27;20964;-72
2024/01/10 06:25:59;;;;;;;19.95;8.68;;;;;;;-6.26;100.00;102972.16;5092353;27;20040;-72
2024/01/10 06:28:24;;;;;;;20.83;8.68;;;;;;;-6.29;100.00;102969.41;5099308;27;21091;-72
2024/01/10 06:30:49;;;;;;;16.05;9.02;;;;;;;-6.15;100.00;102969.97;5098809;27;20032;-72
2024/01/10 06:33:15;;;;;;;22.55;9.60;;;;;;;-6.28;100.00;102972.06;5091389;27;20659;-75
2024/01/10 06:35:44;;;;;;;20.77;9.70;;;;;;;-6.35;100.00;102971.78;5093753;27;20051;-74
2024/01/10 06:38:10;;;;;;;23.20;9.30;;;;;;;-6.41;100.00;102969.81;5086932;27;20151;-75
2024/01/10 06:40:36;;;;;;;20.73;10.55;;;;;;;-6.27;100.00;102971.25;5095162;27;20819;-75
2024/01/10 06:43:03;;;;;;;20.00;9.20;;;;;;;-6.31;100.00;102965.88;5093304;27;20028;-74
2024/01/10 06:45:29;;;;;;;18.13;10.10;;;;;;;-6.26;100.00;102972.16;5087437;27;20121;-75
2024/01/10 06:47:55;;;;;;;17.15;9.13;;;;;;;-6.32;100.00;102964.13;5096694;27;20099;-74
2024/01/10 06:50:21;;;;;;;21.08;9.57;;;;;;;-6.34;100.00;102958.84;5096013;27;20168;-75
2024/01/10 06:52:48;;;;;;;20.15;10.27;;;;;;;-6.34;100.00;102971.81;5099787;27;20032;-74
2024/01/10 06:55:13;;;;;;;24.05;11.35;;;;;;;-6.42;100.00;102970.66;5095271;27;20044;-74
2024/01/10 06:57:39;;;;;;;24.73;10.18;;;;;;;-6.33;100.00;102958.00;5098580;27;20036;-74
2024/01/10 07:00:10;;;;;;;24.50;10.45;;;;;;;-6.36;100.00;102957.91;5099709;27;20646;-75
2024/01/10 07:02:39;;;;;;;21.02;9.45;;;;;;;-6.34;100.00;102966.63;5099336;27;20031;-74
2024/01/10 07:05:09;;;;;;;22.35;10.82;;;;;;;-6.32;100.00;102966.72;5080379;27;20043;-73
2024/01/10 07:07:35;;;;;;;22.30;10.73;;;;;;;-6.35;100.00;102971.78;5100760;27;20038;-74
2024/01/10 07:10:04;;;;;;;25.08;11.70;;;;;;;-6.38;100.00;102969.03;5086090;27;20870;-74
2024/01/10 07:12:34;;;;;;;26.80;12.00;;;;;;;-6.41;100.00;102972.41;5083040;27;20078;-74
2024/01/10 07:15:00;;;;;;;22.42;10.98;;;;;;;-6.47;100.00;102966.97;5075646;28;20037;-73
2024/01/10 07:17:25;;;;;;;21.85;10.65;;;;;;;-6.27;100.00;102957.41;5092794;27;20024;-74
2024/01/10 07:19:51;;;;;;;24.85;11.38;;;;;;;-6.31;100.00;102978.88;5104333;27;20567;-74
2024/01/10 07:22:19;;;;;;;22.52;12.20;;;;;;;-6.37;100.00;102976.91;5097022;27;20028;-73
2024/01/10 07:24:46;;;;;;;22.95;11.20;;;;;;;-6.34;100.00;102969.22;5088534;27;20047;-74
2024/01/10 07:27:14;;;;;;;24.63;12.45;;;;;;;-6.35;100.00;102975.25;5096696;27;20036;-75
2024/01/10 07:29:40;;;;;;;24.02;10.90;;;;;;;-6.27;100.00;102971.25;5104095;27;20084;-73
2024/01/10 07:32:10;;;;;;;24.27;12.07;;;;;;;-6.47;100.00;102985.16;5097356;27;20024;-73
2024/01/10 07:34:37;;;;;;;24.45;11.90;;;;;;;-6.24;100.00;102973.09;5108494;27;20023;-73
2024/01/10 07:37:03;;;;;;;22.55;12.77;;;;;;;-6.33;100.00;102970.09;5102321;27;20028;-74
2024/01/10 07:39:29;;;;;;;23.60;11.52;;;;;;;-6.24;100.00;102974.78;5096191;27;20075;-75
2024/01/10 07:41:55;;;;;;;27.33;13.30;;;;;;;-6.35;100.00;102988.22;5094263;27;20066;-74
2024/01/10 07:44:21;;;;;;;31.58;13.23;;;;;;;-6.30;100.00;102991.88;5100827;27;20052;-74
2024/01/10 07:46:47;;;;;;;23.33;13.18;;;;;;;-6.19;100.00;102992.31;5099351;27;20044;-73
2024/01/10 07:49:16;;;;;;;23.83;12.15;;;;;;;-6.05;100.00;102993.75;5087177;28;20040;-74
2024/01/10 07:51:42;;;;;;;25.88;12.60;;;;;;;-6.06;100.00;102997.19;5073985;27;20047;-74
2024/01/10 07:54:07;;;;;;;24.98;13.15;;;;;;;-6.27;100.00;103009.31;5098982;27;20204;-74
2024/01/10 07:56:33;;;;;;;26.98;13.10;;;;;;;-6.14;100.00;103008.97;5080969;27;20471;-74
2024/01/10 07:58:58;;;;;;;24.25;12.73;;;;;;;-6.16;100.00;103001.97;5100000;27;20669;-75
2024/01/10 08:01:24;;;;;;;30.30;13.38;;;;;;;-6.18;100.00;103011.38;5075109;27;20107;-74
2024/01/10 08:03:49;;;;;;;24.67;12.35;;;;;;;-6.10;100.00;103031.63;5106684;27;20028;-74
2024/01/10 08:06:15;;;;;;;28.05;13.07;;;;;;;-6.12;100.00;103024.63;5097089;27;20573;-73
2024/01/10 08:08:41;;;;;;;26.40;11.80;;;;;;;-6.07;100.00;103023.09;5081532;27;20039;-74
2024/01/10 08:11:06;;;;;;;32.20;14.48;;;;;;;-6.16;100.00;103014.94;5096686;27;20040;-73
2024/01/10 08:13:32;;;;;;;28.27;13.27;;;;;;;-6.14;100.00;103013.28;5098892;27;20036;-73
2024/01/10 08:15:57;;;;;;;26.50;13.50;;;;;;;-6.23;100.00;103016.38;5092215;27;20028;-74
2024/01/10 08:18:23;;;;;;;27.80;14.30;;;;;;;-6.19;100.00;103013.09;5092076;27;20458;-73
2024/01/10 08:20:48;;;;;;;26.38;13.80;;;;;;;-6.13;100.00;103018.53;5078294;27;20110;-74
2024/01/10 08:23:14;;;;;;;27.83;13.45;;;;;;;-6.19;100.00;103004.41;5090732;27;20028;-73
2024/01/10 08:25:40;;;;;;;25.33;12.57;;;;;;;-6.18;100.00;102995.81;5076441;27;20036;-74
2024/01/10 08:28:06;;;;;;;34.28;16.08;;;;;;;-6.13;100.00;102982.16;5097253;27;20036;-75
2024/01/10 08:30:32;;;;;;;35.88;14.75;;;;;;;-5.99;100.00;102993.09;5093585;27;20499;-73
2024/01/10 08:32:59;;;;;;;27.48;13.90;;;;;;;-5.94;100.00;102988.09;5081381;27;20027;-73
2024/01/10 08:35:25;;;;;;;29.92;13.63;;;;;;;-5.83;100.00;102992.84;5086767;27;20056;-74
2024/01/10 08:37:50;;;;;;;29.35;13.43;;;;;;;-5.78;100.00;102993.00;5077303;27;20092;-73
2024/01/10 08:40:17;;;;;;;33.03;14.57;;;;;;;-5.77;100.00;102992.22;5084384;27;21132;-73
2024/01/10 08:42:42;;;;;;;26.58;13.35;;;;;;;-5.75;100.00;102991.44;5091379;27;20023;-73
2024/01/10 08:45:09;;;;;;;32.50;14.60;;;;;;;-5.67;100.00;102986.53;5095904;27;20815;-74
2024/01/10 08:47:36;;;;;;;32.42;13.85;;;;;;;-5.54;100.00;102987.88;5090195;27;20035;-73
2024/01/10 08:50:08;;;;;;;35.88;14.13;;;;;;;-5.62;100.00;102995.38;5095308;27;20036;-73
2024/01/10 08:52:35;;;;;;;34.50;14.95;;;;;;;-5.48;100.00;103001.09;5077386;27;20029;-74
2024/01/10 08:55:00;;;;;;;30.65;15.65;;;;;;;-5.53;100.00;102998.31;5083430;27;20140;-74
2024/01/10 08:57:27;;;;;;;29.00;15.20;;;;;;;-5.38;100.00;102984.13;5075075;27;20112;-74
2024/01/10 08:59:53;;;;;;;32.85;13.82;;;;;;;-5.47;100.00;102998.56;5093880;27;20044;-74
2024/01/10 09:02:19;;;;;;;33.72;14.20;;;;;;;-5.32;100.00;102989.53;5089556;27;20041;-74
2024/01/10 09:04:44;;;;;;;31.10;14.80;;;;;;;-5.30;100.00;102988.78;5096741;27;20117;-74
2024/01/10 09:07:10;;;;;;;32.00;14.60;;;;;;;-5.14;100.00;102979.81;5095205;27;20036;-74
2024/01/10 09:09:35;;;;;;;32.35;15.43;;;;;;;-5.11;100.00;102979.91;5079220;27;20144;-74
2024/01/10 09:12:01;;;;;;;34.40;16.67;;;;;;;-5.01;100.00;102987.22;5095974;27;20885;-74
2024/01/10 09:14:26;;;;;;;29.05;16.15;;;;;;;-5.00;100.00;102990.69;5077225;27;20806;-74
2024/01/10 09:16:52;;;;;;;31.40;14.32;;;;;;;-5.00;100.00;102990.69;5090038;27;20042;-74
2024/01/10 09:19:18;;;;;;;30.38;15.63;;;;;;;-4.96;100.00;102998.66;5087506;27;20039;-74
2024/01/10 09:21:43;;;;;;;34.30;14.32;;;;;;;-4.84;100.00;102990.41;5090720;27;20016;-74
2024/01/10 09:24:11;;;;;;;30.65;14.82;;;;;;;-4.87;100.00;102998.13;5076369;27;20544;-73
2024/01/10 09:26:36;;;;;;;29.42;13.75;;;;;;;-4.84;100.00;103000.81;5072284;27;20024;-73
2024/01/10 09:29:02;;;;;;;34.63;15.50;;;;;;;-4.66;100.00;102991.88;5096148;27;20127;-74
2024/01/10 09:31:27;;;;;;;32.92;15.15;;;;;;;-4.60;100.00;102994.69;5095368;27;20030;-74
2024/01/10 09:33:53;;;;;;;31.08;14.23;;;;;;;-4.64;100.00;102995.41;5074371;27;20040;-74
2024/01/10 09:36:18;;;;;;;33.75;15.25;;;;;;;-4.63;100.00;102997.16;5079105;27;20039;-74
2024/01/10 09:38:44;;;;;;;32.95;14.70;;;;;;;-4.49;100.00;102991.59;5058644;28;20040;-73
2024/01/10 09:41:12;;;;;;;32.22;15.40;;;;;;;-4.39;100.00;102992.78;5097221;27;20036;-74
2024/01/10 09:43:38;;;;;;;30.88;14.38;;;;;;;-4.38;100.00;102989.34;5100947;27;20031;-74
2024/01/10 09:46:07;;;;;;;28.92;13.90;;;;;;;-4.33;100.00;102989.47;5078182;27;20037;-74
2024/01/10 09:48:32;;;;;;;28.65;13.98;;;;;;;-4.24;100.00;102992.38;5080623;27;20119;-74
2024/01/10 09:50:58;;;;;;;29.98;15.10;;;;;;;-4.19;99.26;102985.59;5092175;27;20038;-74
2024/01/10 09:53:35;;;;;;;31.50;14.60;;;;;;;-4.14;99.75;102989.25;5096647;27;20036;-74
2024/01/10 09:56:04;;;;;;;34.28;15.90;;;;;;;-4.13;98.23;102990.13;5094951;27;20032;-74
2024/01/10 09:58:31;;;;;;;29.30;14.50;;;;;;;-4.22;96.54;102988.09;5093754;27;20036;-74
2024/01/10 10:00:57;;;;;;;28.92;14.43;;;;;;;-4.02;96.77;102989.63;5074398;27;20159;-74
2024/01/10 10:03:23;;;;;;;30.88;14.23;;;;;;;-3.99;95.37;102994.94;5076195;27;20842;-74
2024/01/10 10:05:49;;;;;;;34.45;15.45;;;;;;;-3.97;95.04;102993.25;5092453;27;20049;-75
2024/01/10 10:08:15;;;;;;;31.35;14.68;;;;;;;-3.89;94.29;102995.22;5091449;27;20035;-74
2024/01/10 10:10:44;;;;;;;35.38;14.45;;;;;;;-3.81;92.96;102986.81;5094613;27;20868;-74
2024/01/10 10:13:17;;;;;;;34.85;15.32;;;;;;;-3.89;91.47;102988.28;5094178;27;20054;-74
2024/01/10 10:15:42;;;;;;;32.92;14.48;;;;;;;-3.69;91.91;102991.50;5074798;27;20114;-74
2024/01/10 10:18:13;;;;;;;28.98;14.25;;;;;;;-3.65;90.74;102999.47;5092545;27;20040;-74
2024/01/10 10:20:39;;;;;;;29.38;13.82;;;;;;;-3.58;89.73;102992.69;5093448;27;20074;-73
2024/01/10 10:23:07;;;;;;;36.85;15.90;;;;;;;-3.70;90.49;102990.63;5098240;27;20042;-74
2024/01/10 10:25:42;;;;;;;32.05;13.93;;;;;;;-3.52;89.69;102987.66;5073571;27;20049;-74
2024/01/10 10:28:08;;;;;;;30.20;13.60;;;;;;;-3.59;89.10;102977.91;5097934;27;20043;-74
2024/01/10 10:30:34;;;;;;;32.22;14.32;;;;;;;-3.38;89.60;102986.31;5099432;27;20046;-73
2024/01/10 10:33:01;;;;;;;25.80;13.30;;;;;;;-3.26;88.64;102992.75;5089755;27;20063;-74
2024/01/10 10:35:27;;;;;;;28.90;13.80;;;;;;;-3.28;87.26;102986.59;5100254;27;20032;-74
2024/01/10 10:37:53;;;;;;;33.80;15.60;;;;;;;-3.20;87.52;102977.28;5096026;27;20032;-74
2024/01/10 10:40:20;;;;;;;32.65;14.30;;;;;;;-3.20;87.21;102988.59;5080555;27;20052;-74
2024/01/10 10:42:47;;;;;;;31.58;15.20;;;;;;;-3.17;85.89;102978.22;5094098;27;20070;-73
2024/01/10 10:45:17;;;;;;;30.33;14.35;;;;;;;-3.06;85.46;102973.31;5104322;27;20050;-74
2024/01/10 10:47:46;;;;;;;30.92;14.88;;;;;;;-2.96;84.97;102969.19;5093976;27;20028;-74
2024/01/10 10:50:23;;;;;;;29.38;14.15;;;;;;;-3.03;83.05;102977.72;5095818;27;20183;-74
2024/01/10 10:52:50;;;;;;;29.38;14.32;;;;;;;-2.89;83.91;102971.16;5073722;27;20043;-74
2024/01/10 10:55:16;;;;;;;28.33;14.10;;;;;;;-2.88;83.47;102975.53;5109492;27;20139;-73
2024/01/10 10:57:46;;;;;;;31.23;14.32;;;;;;;-2.89;81.85;102976.38;5105268;27;20080;-73
2024/01/10 11:00:18;;;;;;;29.13;14.30;;;;;;;-2.85;81.27;102969.50;5094462;27;20032;-74
2024/01/10 11:02:45;;;;;;;32.70;13.95;;;;;;;-2.75;81.70;102961.94;5099576;27;20066;-74